Time;durP1;ratioP1;P1;durP2;ratioP2;P2;SDS_P1;SDS_P2;PMS_P1;PMS_P2;Temp;Humidity;BMP_temperature;BMP_pressure;BME280_temperature;BME280_humidity;BME280_pressure;Samples;Min_cycle;Max_cycle;Signal;HPM_P1;HPM_P2
2020/12/16 00:01:53;;;;;;;83.90;27.40;;;;;;;;;;5025453;28;20030;-73
2020/12/16 00:04:19;;;;;;;104.20;29.27;;;;;;;;;;5027731;28;20534;-72
2020/12/16 00:06:45;;;;;;;109.47;30.77;;;;;;;;;;5028213;28;20029;-72
2020/12/16 00:09:11;;;;;;;185.65;36.85;;;;;;;;;;5027568;28;20083;-72
2020/12/16 00:11:37;;;;;;;71.15;26.15;;;;;;;;;;5028021;28;20056;-73
2020/12/16 00:14:03;;;;;;;193.90;31.90;;;;;;;;;;5028292;28;20449;-72
2020/12/16 00:16:29;;;;;;;214.15;31.85;;;;;;;;;;5023974;28;20476;-73
2020/12/16 00:18:55;;;;;;;247.93;34.60;;;;;;;;;;5022174;28;20409;-72
2020/12/16 00:21:21;;;;;;;300.85;36.63;;;;;;;;;;5026310;28;20051;-73
2020/12/16 00:23:48;;;;;;;167.27;30.88;;;;;;;;;;5018158;28;20585;-72
2020/12/16 00:26:14;;;;;;;223.23;35.13;;;;;;;;;;5014709;28;20029;-73
2020/12/16 00:28:41;;;;;;;199.40;33.72;;;;;;;;;;5028093;28;20399;-73
2020/12/16 00:31:07;;;;;;;287.17;41.47;;;;;;;;;;5012662;28;20562;-72
2020/12/16 00:33:33;;;;;;;320.25;41.47;;;;;;;;;;5018093;28;20092;-73
2020/12/16 00:35:59;;;;;;;315.63;43.00;;;;;;;;;;5024293;28;20032;-72
2020/12/16 00:38:25;;;;;;;316.58;36.42;;;;;;;;;;5028256;28;20040;-73
2020/12/16 00:40:51;;;;;;;224.27;34.65;;;;;;;;;;5027223;28;20033;-72
2020/12/16 00:43:17;;;;;;;314.40;39.33;;;;;;;;;;5026162;28;20039;-73
2020/12/16 00:45:43;;;;;;;341.73;46.53;;;;;;;;;;5026716;28;20120;-72
2020/12/16 00:48:09;;;;;;;225.07;35.70;;;;;;;;;;5037658;28;20113;-72
2020/12/16 00:50:35;;;;;;;270.05;43.20;;;;;;;;;;5018814;28;20071;-72
2020/12/16 00:53:01;;;;;;;347.85;46.60;;;;;;;;;;5013405;28;20103;-72
2020/12/16 00:55:27;;;;;;;317.02;42.65;;;;;;;;;;5019371;28;20373;-73
2020/12/16 00:57:55;;;;;;;371.92;49.35;;;;;;;;;;5021682;28;20061;-73
2020/12/16 01:00:20;;;;;;;316.30;42.47;;;;;;;;;;5015358;28;20534;-72
2020/12/16 01:02:47;;;;;;;410.38;49.70;;;;;;;;;;5014007;28;20065;-72
2020/12/16 01:05:17;;;;;;;326.60;43.25;;;;;;;;;;5027469;28;20029;-72
2020/12/16 01:07:43;;;;;;;335.90;40.75;;;;;;;;;;5027418;28;20029;-73
2020/12/16 01:10:09;;;;;;;384.63;46.35;;;;;;;;;;5027917;28;20033;-72
2020/12/16 01:12:42;;;;;;;293.88;39.22;;;;;;;;;;5025410;28;20026;-72
2020/12/16 01:15:09;;;;;;;433.50;54.35;;;;;;;;;;5016437;28;20029;-72
2020/12/16 01:17:37;;;;;;;352.70;50.20;;;;;;;;;;5028477;28;20471;-72
2020/12/16 01:20:04;;;;;;;350.73;44.50;;;;;;;;;;5020291;28;20368;-73
2020/12/16 01:22:30;;;;;;;378.95;50.38;;;;;;;;;;5021713;28;20029;-73
2020/12/16 01:24:55;;;;;;;393.45;55.25;;;;;;;;;;5026157;28;20025;-72
2020/12/16 01:27:21;;;;;;;348.48;49.40;;;;;;;;;;5026009;28;20029;-72
2020/12/16 01:29:47;;;;;;;310.52;49.15;;;;;;;;;;5034951;28;20030;-72
2020/12/16 01:32:16;;;;;;;239.25;45.30;;;;;;;;;;5021388;28;20382;-72
2020/12/16 01:34:42;;;;;;;258.25;47.97;;;;;;;;;;5026326;28;20041;-72
2020/12/16 01:37:08;;;;;;;298.00;48.85;;;;;;;;;;5027311;28;20336;-73
2020/12/16 01:39:34;;;;;;;229.43;46.25;;;;;;;;;;5022961;28;20392;-73
2020/12/16 01:42:00;;;;;;;271.77;52.13;;;;;;;;;;5007632;28;20034;-72
2020/12/16 01:44:28;;;;;;;251.50;49.25;;;;;;;;;;5023434;28;20444;-73
2020/12/16 01:46:55;;;;;;;342.48;59.45;;;;;;;;;;5026052;28;20026;-73
2020/12/16 01:49:22;;;;;;;303.65;56.47;;;;;;;;;;5027300;28;20022;-72
2020/12/16 01:51:50;;;;;;;349.40;59.78;;;;;;;;;;5021554;28;20034;-72
2020/12/16 01:54:19;;;;;;;383.85;65.38;;;;;;;;;;5024333;28;20039;-72
2020/12/16 01:56:46;;;;;;;380.17;62.00;;;;;;;;;;5030090;28;20029;-72
2020/12/16 01:59:13;;;;;;;423.38;70.00;;;;;;;;;;5018096;28;20061;-72
2020/12/16 02:01:41;;;;;;;403.65;69.75;;;;;;;;;;5043908;28;20276;-72
2020/12/16 02:04:09;;;;;;;451.80;73.70;;;;;;;;;;5027482;28;20057;-72
2020/12/16 02:06:35;;;;;;;442.20;73.68;;;;;;;;;;5024979;28;20305;-72
2020/12/16 02:09:03;;;;;;;452.73;74.32;;;;;;;;;;5028998;28;20494;-72
2020/12/16 02:11:29;;;;;;;431.45;71.20;;;;;;;;;;5016323;28;20024;-72
2020/12/16 02:13:56;;;;;;;382.30;66.03;;;;;;;;;;5028744;28;20029;-72
2020/12/16 02:16:22;;;;;;;301.17;56.08;;;;;;;;;;5029797;28;20034;-72
2020/12/16 02:18:48;;;;;;;237.05;51.28;;;;;;;;;;5020881;28;20040;-73
2020/12/16 02:21:14;;;;;;;404.15;70.72;;;;;;;;;;5027595;28;20053;-73
2020/12/16 02:23:40;;;;;;;288.95;59.85;;;;;;;;;;5019829;28;20041;-73
2020/12/16 02:26:06;;;;;;;271.13;55.67;;;;;;;;;;5028773;28;20025;-72
2020/12/16 02:28:32;;;;;;;302.38;59.50;;;;;;;;;;5030212;28;20040;-71
2020/12/16 02:30:58;;;;;;;379.17;65.80;;;;;;;;;;5028614;28;20018;-72
2020/12/16 02:33:24;;;;;;;320.52;57.97;;;;;;;;;;5030317;28;20037;-72
2020/12/16 02:35:50;;;;;;;347.23;61.20;;;;;;;;;;5030901;28;20030;-72
2020/12/16 02:38:16;;;;;;;274.90;55.78;;;;;;;;;;5030312;28;20545;-72
2020/12/16 02:40:42;;;;;;;347.90;61.78;;;;;;;;;;5020506;28;20573;-72
2020/12/16 02:43:08;;;;;;;283.23;54.80;;;;;;;;;;5043728;28;20057;-72
2020/12/16 02:45:34;;;;;;;315.65;54.13;;;;;;;;;;5016411;28;20546;-71
2020/12/16 02:48:00;;;;;;;374.50;64.78;;;;;;;;;;5026228;28;20028;-73
2020/12/16 02:50:26;;;;;;;237.38;51.30;;;;;;;;;;5025487;28;20026;-73
2020/12/16 02:52:52;;;;;;;342.92;56.03;;;;;;;;;;5025423;28;20034;-73
2020/12/16 02:55:17;;;;;;;299.25;56.35;;;;;;;;;;5029965;28;20033;-73
2020/12/16 02:57:43;;;;;;;316.70;59.10;;;;;;;;;;5029609;28;20380;-73
2020/12/16 03:00:09;;;;;;;261.98;54.63;;;;;;;;;;5029480;28;20056;-72
2020/12/16 03:02:35;;;;;;;280.73;56.05;;;;;;;;;;5029337;28;20105;-73
2020/12/16 03:05:01;;;;;;;267.30;54.47;;;;;;;;;;5028922;28;20179;-72
2020/12/16 03:07:28;;;;;;;237.82;51.10;;;;;;;;;;5042723;28;20558;-73
2020/12/16 03:09:53;;;;;;;205.40;49.33;;;;;;;;;;5020259;28;20078;-72
2020/12/16 03:12:19;;;;;;;296.85;58.88;;;;;;;;;;5029188;28;20033;-73
2020/12/16 03:14:45;;;;;;;302.52;63.83;;;;;;;;;;5027666;28;20441;-72
2020/12/16 03:17:12;;;;;;;259.65;54.97;;;;;;;;;;5028804;28;20492;-73
2020/12/16 03:19:38;;;;;;;240.45;53.95;;;;;;;;;;5014591;28;20104;-73
2020/12/16 03:22:04;;;;;;;320.73;62.88;;;;;;;;;;5028867;28;20475;-73
2020/12/16 03:24:30;;;;;;;294.80;59.95;;;;;;;;;;5028360;28;20486;-73
2020/12/16 03:26:56;;;;;;;243.07;56.25;;;;;;;;;;5029508;28;20025;-73
2020/12/16 03:29:22;;;;;;;386.98;71.45;;;;;;;;;;5031483;28;20039;-72
2020/12/16 03:31:48;;;;;;;302.50;67.28;;;;;;;;;;5027903;28;20026;-72
2020/12/16 03:34:14;;;;;;;365.63;75.13;;;;;;;;;;5028115;28;20048;-72
2020/12/16 03:36:40;;;;;;;340.77;71.80;;;;;;;;;;5028523;28;20045;-73
2020/12/16 03:39:06;;;;;;;328.17;70.47;;;;;;;;;;5027411;28;20029;-72
2020/12/16 03:41:32;;;;;;;326.95;69.00;;;;;;;;;;5028785;28;20023;-72
2020/12/16 03:43:58;;;;;;;408.52;78.18;;;;;;;;;;5019248;28;20117;-72
2020/12/16 03:46:24;;;;;;;367.73;80.20;;;;;;;;;;5023794;28;20486;-72
2020/12/16 03:48:50;;;;;;;519.80;91.25;;;;;;;;;;5016549;28;20049;-73
2020/12/16 03:51:16;;;;;;;434.38;91.68;;;;;;;;;;5022190;28;20022;-72
2020/12/16 03:53:42;;;;;;;514.75;97.28;;;;;;;;;;5027304;28;20095;-72
2020/12/16 03:56:09;;;;;;;404.20;79.68;;;;;;;;;;5014587;28;20029;-72
2020/12/16 03:58:36;;;;;;;392.45;78.63;;;;;;;;;;5028540;28;20057;-73
2020/12/16 04:01:06;;;;;;;379.98;74.47;;;;;;;;;;5027036;28;20048;-72
2020/12/16 04:03:32;;;;;;;406.48;73.20;;;;;;;;;;5028397;28;20116;-72
2020/12/16 04:05:58;;;;;;;465.42;80.05;;;;;;;;;;5028142;28;20030;-72
2020/12/16 04:08:24;;;;;;;381.88;73.97;;;;;;;;;;5028060;28;20072;-73
2020/12/16 04:10:51;;;;;;;443.67;79.75;;;;;;;;;;5016786;28;20026;-72
2020/12/16 04:13:17;;;;;;;283.77;63.05;;;;;;;;;;5025874;28;20045;-73
2020/12/16 04:15:43;;;;;;;393.25;72.80;;;;;;;;;;5028024;28;20072;-72
2020/12/16 04:18:09;;;;;;;273.85;60.72;;;;;;;;;;5022451;28;20029;-72
2020/12/16 04:20:35;;;;;;;282.98;59.83;;;;;;;;;;5027485;28;20076;-73
2020/12/16 04:23:01;;;;;;;328.08;66.55;;;;;;;;;;5028818;28;20040;-73
2020/12/16 04:25:27;;;;;;;308.33;62.90;;;;;;;;;;5032738;28;20544;-73
2020/12/16 04:27:53;;;;;;;336.50;66.65;;;;;;;;;;5028408;28;20533;-72
2020/12/16 04:30:19;;;;;;;274.13;60.53;;;;;;;;;;5027883;28;20558;-73
2020/12/16 04:32:45;;;;;;;217.40;53.75;;;;;;;;;;5028236;28;20067;-72
2020/12/16 04:35:11;;;;;;;275.33;58.47;;;;;;;;;;5017626;28;20072;-72
2020/12/16 04:37:36;;;;;;;279.75;64.18;;;;;;;;;;5023753;28;20460;-73
2020/12/16 04:40:03;;;;;;;289.58;63.15;;;;;;;;;;5018711;28;20068;-72
2020/12/16 04:42:29;;;;;;;202.82;53.90;;;;;;;;;;5037261;28;20038;-73
2020/12/16 04:44:55;;;;;;;311.52;67.32;;;;;;;;;;5028117;28;20101;-73
2020/12/16 04:47:21;;;;;;;264.10;58.95;;;;;;;;;;5027613;28;20110;-72
2020/12/16 04:49:47;;;;;;;269.10;55.85;;;;;;;;;;5027711;28;20041;-73
2020/12/16 04:52:16;;;;;;;288.48;60.05;;;;;;;;;;5030143;28;20024;-72
2020/12/16 04:54:43;;;;;;;170.23;41.40;;;;;;;;;;5027786;28;20026;-73
2020/12/16 04:57:09;;;;;;;267.98;57.67;;;;;;;;;;5017245;28;20022;-73
2020/12/16 04:59:35;;;;;;;271.20;60.17;;;;;;;;;;5024601;28;20036;-72
2020/12/16 05:02:03;;;;;;;272.60;56.10;;;;;;;;;;5018536;28;20565;-72
2020/12/16 05:04:29;;;;;;;265.98;59.92;;;;;;;;;;5027580;28;20025;-73
2020/12/16 05:06:54;;;;;;;242.38;53.58;;;;;;;;;;5026339;28;20363;-73
2020/12/16 05:09:20;;;;;;;263.98;59.35;;;;;;;;;;5026298;28;20032;-72
2020/12/16 05:11:48;;;;;;;260.17;56.45;;;;;;;;;;5027644;28;20022;-73
2020/12/16 05:14:21;;;;;;;315.77;61.17;;;;;;;;;;5028052;28;20033;-72
2020/12/16 05:16:53;;;;;;;291.85;54.17;;;;;;;;;;5027101;28;20083;-72
2020/12/16 05:19:57;;;;;;;238.85;53.35;;;;;;;;;;5013415;28;20122;-73
2020/12/16 05:22:24;;;;;;;240.73;55.63;;;;;;;;;;4965952;28;20039;-72
2020/12/16 05:24:54;;;;;;;264.70;55.50;;;;;;;;;;4966293;28;20034;-72
2020/12/16 05:27:21;;;;;;;262.48;60.30;;;;;;;;;;4989713;28;20042;-72
2020/12/16 05:29:52;;;;;;;282.80;58.65;;;;;;;;;;5029699;28;20056;-72
2020/12/16 05:32:28;;;;;;;309.85;65.90;;;;;;;;;;5031200;28;20545;-73
2020/12/16 05:34:55;;;;;;;247.18;53.97;;;;;;;;;;5018911;28;20037;-73
2020/12/16 05:37:21;;;;;;;334.00;63.50;;;;;;;;;;5034125;28;20041;-72
2020/12/16 05:40:07;;;;;;;349.63;68.25;;;;;;;;;;5028882;28;20032;-73
2020/12/16 05:42:33;;;;;;;253.82;55.63;;;;;;;;;;5031293;28;20040;-73
2020/12/16 05:45:06;;;;;;;290.92;56.20;;;;;;;;;;5030704;28;20013;-73
2020/12/16 05:47:32;;;;;;;279.73;58.13;;;;;;;;;;5030958;28;20033;-73
2020/12/16 05:49:58;;;;;;;230.57;54.83;;;;;;;;;;5016847;28;20018;-72
2020/12/16 05:52:24;;;;;;;235.70;53.65;;;;;;;;;;5036033;28;20036;-73
2020/12/16 05:54:52;;;;;;;256.67;55.60;;;;;;;;;;5028934;28;20423;-72
2020/12/16 05:57:19;;;;;;;264.83;53.58;;;;;;;;;;5015212;28;20025;-73
2020/12/16 06:00:01;;;;;;;205.85;48.67;;;;;;;;;;5029399;28;20660;-72
2020/12/16 06:02:34;;;;;;;313.15;53.75;;;;;;;;;;5030695;28;20116;-72
2020/12/16 06:05:00;;;;;;;345.83;51.53;;;;;;;;;;5030446;28;20090;-72
2020/12/16 06:07:28;;;;;;;335.05;57.17;;;;;;;;;;5030865;28;20478;-72
2020/12/16 06:09:56;;;;;;;299.17;52.17;;;;;;;;;;5030683;28;20458;-73
2020/12/16 06:12:25;;;;;;;265.33;51.33;;;;;;;;;;5030921;28;20497;-72
2020/12/16 06:15:03;;;;;;;269.13;48.50;;;;;;;;;;5030226;28;20025;-72
2020/12/16 06:17:31;;;;;;;303.67;53.03;;;;;;;;;;5026642;28;20061;-72
2020/12/16 06:20:00;;;;;;;340.02;57.00;;;;;;;;;;5021209;28;20037;-73
2020/12/16 06:22:32;;;;;;;361.55;58.13;;;;;;;;;;5030633;28;20117;-72
2020/12/16 06:24:58;;;;;;;381.98;62.05;;;;;;;;;;5028730;28;20025;-73
2020/12/16 06:27:30;;;;;;;350.58;55.67;;;;;;;;;;5032388;28;20107;-73
2020/12/16 06:29:58;;;;;;;322.40;54.97;;;;;;;;;;5021433;28;20030;-73
2020/12/16 06:32:25;;;;;;;303.80;53.67;;;;;;;;;;5028907;28;20060;-73
2020/12/16 06:34:53;;;;;;;408.20;68.50;;;;;;;;;;5030286;28;20045;-72
2020/12/16 06:37:19;;;;;;;407.75;66.78;;;;;;;;;;5029584;28;20037;-72
2020/12/16 06:39:44;;;;;;;386.25;64.80;;;;;;;;;;5016194;28;20037;-73
2020/12/16 06:42:10;;;;;;;311.63;53.78;;;;;;;;;;5033925;28;20026;-73
2020/12/16 06:44:36;;;;;;;449.10;71.65;;;;;;;;;;5024780;28;20022;-73
2020/12/16 06:47:03;;;;;;;433.42;74.57;;;;;;;;;;5010244;28;20026;-72
2020/12/16 06:49:30;;;;;;;455.23;69.35;;;;;;;;;;5028002;28;20057;-73
2020/12/16 06:51:59;;;;;;;326.85;55.08;;;;;;;;;;5020099;28;20429;-74
2020/12/16 06:54:26;;;;;;;401.35;55.72;;;;;;;;;;5017458;28;20491;-73
2020/12/16 06:57:10;;;;;;;416.85;60.83;;;;;;;;;;5020410;28;20483;-72
2020/12/16 06:59:45;;;;;;;380.02;56.70;;;;;;;;;;5018484;28;20033;-73
2020/12/16 07:02:12;;;;;;;395.00;61.85;;;;;;;;;;5029726;28;20030;-73
2020/12/16 07:04:38;;;;;;;426.00;61.58;;;;;;;;;;5026701;28;20030;-73
2020/12/16 07:07:04;;;;;;;430.70;59.25;;;;;;;;;;5027296;28;20092;-73
2020/12/16 07:09:33;;;;;;;394.70;56.25;;;;;;;;;;5028517;28;20451;-73
2020/12/16 07:11:59;;;;;;;390.00;54.30;;;;;;;;;;5022358;28;20018;-73
2020/12/16 07:14:32;;;;;;;351.50;54.17;;;;;;;;;;5027954;28;20467;-73
2020/12/16 07:17:08;;;;;;;413.48;54.70;;;;;;;;;;5020806;28;20037;-72
2020/12/16 07:19:34;;;;;;;303.70;48.97;;;;;;;;;;5029234;28;20520;-73
2020/12/16 07:22:16;;;;;;;307.85;49.97;;;;;;;;;;5014645;28;20029;-73
2020/12/16 07:24:46;;;;;;;304.95;49.22;;;;;;;;;;5017320;28;20500;-72
2020/12/16 07:27:14;;;;;;;282.92;46.90;;;;;;;;;;5028512;28;20079;-73
2020/12/16 07:29:52;;;;;;;261.52;45.72;;;;;;;;;;5022852;28;20033;-72
2020/12/16 07:32:20;;;;;;;270.00;47.00;;;;;;;;;;5023260;28;20475;-72
2020/12/16 07:34:50;;;;;;;354.90;54.25;;;;;;;;;;5027691;28;20025;-73
2020/12/16 07:37:18;;;;;;;331.15;49.45;;;;;;;;;;5029144;28;20469;-72
2020/12/16 07:39:45;;;;;;;274.85;47.85;;;;;;;;;;5027939;28;20441;-73
2020/12/16 07:42:11;;;;;;;431.13;61.33;;;;;;;;;;5029102;28;20022;-73
2020/12/16 07:44:44;;;;;;;379.38;58.85;;;;;;;;;;5028188;28;20474;-73
2020/12/16 07:47:10;;;;;;;333.33;52.08;;;;;;;;;;5029265;28;20021;-73
2020/12/16 07:49:40;;;;;;;355.17;54.00;;;;;;;;;;5014326;28;20713;-73
2020/12/16 07:52:06;;;;;;;324.60;56.00;;;;;;;;;;5017567;28;20022;-73
2020/12/16 07:54:32;;;;;;;314.48;50.80;;;;;;;;;;5027365;28;20522;-73
2020/12/16 07:56:58;;;;;;;339.88;54.00;;;;;;;;;;5028471;28;20033;-73
2020/12/16 07:59:37;;;;;;;348.95;55.22;;;;;;;;;;5014408;28;20567;-73
2020/12/16 08:02:11;;;;;;;279.77;49.80;;;;;;;;;;5028386;28;20558;-73
2020/12/16 08:04:37;;;;;;;295.60;51.80;;;;;;;;;;5027807;28;20026;-73
2020/12/16 08:07:12;;;;;;;362.45;58.30;;;;;;;;;;5028708;28;20097;-72
2020/12/16 08:09:38;;;;;;;320.38;54.50;;;;;;;;;;5028040;28;20124;-73
2020/12/16 08:12:04;;;;;;;332.40;54.88;;;;;;;;;;5028484;28;20036;-73
2020/12/16 08:14:31;;;;;;;335.65;54.45;;;;;;;;;;5026763;28;20038;-73
2020/12/16 08:17:08;;;;;;;283.77;52.42;;;;;;;;;;5014542;28;20120;-73
2020/12/16 08:19:34;;;;;;;312.10;53.85;;;;;;;;;;5015856;28;20479;-72
2020/12/16 08:22:09;;;;;;;255.40;47.80;;;;;;;;;;5023685;28;20052;-72
2020/12/16 08:24:35;;;;;;;289.27;52.25;;;;;;;;;;5020540;28;20479;-72
2020/12/16 08:27:02;;;;;;;312.00;55.75;;;;;;;;;;5028027;28;20037;-71
2020/12/16 08:29:29;;;;;;;268.10;49.15;;;;;;;;;;5021708;28;20033;-72
2020/12/16 08:31:56;;;;;;;269.50;49.00;;;;;;;;;;5027751;28;20547;-72
2020/12/16 08:34:22;;;;;;;297.33;53.92;;;;;;;;;;5027267;28;20033;-72
2020/12/16 08:36:50;;;;;;;287.13;51.42;;;;;;;;;;5025898;28;20485;-72
2020/12/16 08:39:22;;;;;;;299.88;55.50;;;;;;;;;;5026526;28;20036;-72
2020/12/16 08:41:53;;;;;;;287.80;53.50;;;;;;;;;;5027561;28;20088;-72
2020/12/16 08:44:23;;;;;;;303.83;55.53;;;;;;;;;;5027448;28;20109;-73
2020/12/16 08:46:49;;;;;;;298.30;53.33;;;;;;;;;;5028000;28;20029;-72
2020/12/16 08:49:15;;;;;;;245.57;50.10;;;;;;;;;;5012154;28;20273;-73
2020/12/16 08:51:43;;;;;;;240.02;52.13;;;;;;;;;;5027952;28;20026;-72
2020/12/16 08:54:09;;;;;;;247.48;51.38;;;;;;;;;;5025903;28;20083;-73
2020/12/16 08:56:40;;;;;;;238.77;50.83;;;;;;;;;;5026100;28;20037;-73
2020/12/16 08:59:13;;;;;;;281.88;52.17;;;;;;;;;;5027507;28;20030;-72
2020/12/16 09:01:43;;;;;;;243.73;52.05;;;;;;;;;;5028160;28;20030;-73
2020/12/16 09:04:10;;;;;;;248.68;52.65;;;;;;;;;;5031590;28;20086;-73
2020/12/16 09:06:36;;;;;;;231.45;52.00;;;;;;;;;;5031003;28;20022;-72
2020/12/16 09:09:12;;;;;;;237.43;51.90;;;;;;;;;;5030323;28;20073;-72
2020/12/16 09:11:38;;;;;;;240.13;53.95;;;;;;;;;;5019166;28;20034;-72
2020/12/16 09:14:04;;;;;;;197.10;49.53;;;;;;;;;;5031796;28;20585;-72
2020/12/16 09:16:30;;;;;;;239.98;52.78;;;;;;;;;;5030764;28;20625;-71
2020/12/16 09:18:56;;;;;;;203.18;47.63;;;;;;;;;;5031715;28;20482;-72
2020/12/16 09:21:36;;;;;;;191.45;44.58;;;;;;;;;;5023403;28;20041;-72
2020/12/16 09:24:05;;;;;;;184.10;46.13;;;;;;;;;;5024486;28;20037;-73
2020/12/16 09:26:39;;;;;;;182.43;45.97;;;;;;;;;;5021100;28;20052;-72
2020/12/16 09:29:18;;;;;;;180.77;45.50;;;;;;;;;;5031055;28;20034;-72
2020/12/16 09:31:44;;;;;;;164.23;42.37;;;;;;;;;;5031340;28;20056;-73
2020/12/16 09:34:11;;;;;;;157.43;40.80;;;;;;;;;;5029310;28;20322;-73
2020/12/16 09:36:37;;;;;;;157.73;39.60;;;;;;;;;;5029000;28;20037;-73
2020/12/16 09:39:07;;;;;;;139.05;39.50;;;;;;;;;;5029887;28;20029;-73
2020/12/16 09:41:51;;;;;;;133.75;39.70;;;;;;;;;;5023246;28;20068;-73
2020/12/16 09:44:23;;;;;;;143.88;41.70;;;;;;;;;;5029627;28;20076;-73
2020/12/16 09:46:49;;;;;;;139.20;41.05;;;;;;;;;;5031048;28;20101;-73
2020/12/16 09:49:18;;;;;;;130.65;41.42;;;;;;;;;;5031190;28;20101;-73
2020/12/16 09:51:44;;;;;;;117.68;41.28;;;;;;;;;;5019595;28;20034;-73
2020/12/16 09:54:10;;;;;;;117.55;39.85;;;;;;;;;;5031176;28;20030;-73
2020/12/16 09:56:36;;;;;;;123.22;38.92;;;;;;;;;;5028899;28;20033;-73
2020/12/16 09:59:02;;;;;;;113.60;39.53;;;;;;;;;;5024062;28;20037;-73
2020/12/16 10:01:28;;;;;;;102.88;40.10;;;;;;;;;;5030015;28;20526;-73
2020/12/16 10:03:54;;;;;;;117.63;41.33;;;;;;;;;;5028504;28;20413;-73
2020/12/16 10:06:20;;;;;;;103.18;38.08;;;;;;;;;;5030618;28;20080;-73
2020/12/16 10:08:46;;;;;;;96.20;36.67;;;;;;;;;;5030579;28;20026;-73
2020/12/16 10:11:13;;;;;;;94.57;39.03;;;;;;;;;;5030280;28;20082;-73
2020/12/16 10:13:39;;;;;;;81.78;36.15;;;;;;;;;;5029546;28;20032;-72
2020/12/16 10:16:07;;;;;;;76.22;33.95;;;;;;;;;;5029215;28;20060;-73
2020/12/16 10:18:33;;;;;;;65.10;31.17;;;;;;;;;;5024195;28;20717;-73
2020/12/16 10:20:59;;;;;;;73.20;33.15;;;;;;;;;;5028943;28;20172;-72
2020/12/16 10:23:25;;;;;;;48.83;28.50;;;;;;;;;;5030140;28;20122;-72
2020/12/16 10:25:51;;;;;;;49.45;25.48;;;;;;;;;;5030230;28;20109;-72
2020/12/16 10:28:19;;;;;;;39.28;21.67;;;;;;;;;;5021847;28;20081;-73
2020/12/16 10:30:44;;;;;;;32.60;18.95;;;;;;;;;;5025552;28;20029;-71
2020/12/16 10:33:10;;;;;;;27.08;16.80;;;;;;;;;;5030846;28;20051;-71
2020/12/16 10:35:36;;;;;;;25.35;15.73;;;;;;;;;;5029714;28;20033;-71
2020/12/16 10:38:02;;;;;;;24.05;14.45;;;;;;;;;;5029312;28;20457;-71
2020/12/16 10:40:31;;;;;;;22.33;13.05;;;;;;;;;;5030625;28;20041;-72
2020/12/16 10:42:57;;;;;;;19.23;13.35;;;;;;;;;;5022836;28;20022;-72
2020/12/16 10:45:25;;;;;;;16.63;11.30;;;;;;;;;;5025455;28;20036;-72
2020/12/16 10:47:56;;;;;;;14.48;10.35;;;;;;;;;;5028115;28;20125;-72
2020/12/16 10:50:22;;;;;;;15.98;10.45;;;;;;;;;;5030197;28;20052;-72
2020/12/16 10:52:48;;;;;;;15.80;11.15;;;;;;;;;;5029938;28;20022;-72
2020/12/16 10:55:14;;;;;;;20.10;11.40;;;;;;;;;;5021473;28;20446;-72
2020/12/16 10:57:40;;;;;;;15.00;10.57;;;;;;;;;;5025095;28;20033;-72
2020/12/16 11:00:06;;;;;;;15.52;10.75;;;;;;;;;;5021686;28;20391;-72
2020/12/16 11:02:32;;;;;;;15.45;10.10;;;;;;;;;;5023583;28;20041;-71
2020/12/16 11:04:58;;;;;;;11.02;8.27;;;;;;;;;;5029021;28;20037;-71
2020/12/16 11:07:24;;;;;;;15.23;9.52;;;;;;;;;;5030014;28;20033;-71
2020/12/16 11:09:50;;;;;;;13.57;9.90;;;;;;;;;;5027455;28;20039;-71
2020/12/16 11:12:16;;;;;;;17.80;10.68;;;;;;;;;;5029178;28;20386;-72
2020/12/16 11:14:42;;;;;;;15.45;9.77;;;;;;;;;;5027329;28;20048;-72
2020/12/16 11:17:09;;;;;;;17.83;9.45;;;;;;;;;;5029055;28;20040;-71
2020/12/16 11:19:35;;;;;;;13.52;9.13;;;;;;;;;;5029396;28;20022;-70
2020/12/16 11:22:03;;;;;;;12.93;8.80;;;;;;;;;;5029831;28;20033;-70
2020/12/16 11:24:29;;;;;;;11.75;8.88;;;;;;;;;;5029282;28;20017;-71
2020/12/16 11:26:55;;;;;;;11.93;8.55;;;;;;;;;;5029225;28;20037;-71
2020/12/16 11:29:23;;;;;;;10.43;7.95;;;;;;;;;;5029739;28;20357;-71
2020/12/16 11:31:50;;;;;;;13.07;9.63;;;;;;;;;;5030019;28;20038;-71
2020/12/16 11:34:16;;;;;;;13.55;9.15;;;;;;;;;;5027211;28;20105;-71
2020/12/16 11:36:44;;;;;;;13.02;9.10;;;;;;;;;;5029731;28;20077;-71
2020/12/16 11:39:10;;;;;;;10.05;8.15;;;;;;;;;;5027114;28;20741;-71
2020/12/16 11:41:36;;;;;;;13.40;8.10;;;;;;;;;;5024498;28;20472;-71
2020/12/16 11:44:02;;;;;;;12.45;8.30;;;;;;;;;;5028404;28;20033;-70
2020/12/16 11:46:31;;;;;;;10.70;8.32;;;;;;;;;;5027450;28;20029;-71
2020/12/16 11:49:01;;;;;;;14.05;7.88;;;;;;;;;;5028188;28;20021;-71
2020/12/16 11:51:27;;;;;;;12.32;8.50;;;;;;;;;;5025348;28;20013;-71
2020/12/16 11:53:54;;;;;;;13.20;8.80;;;;;;;;;;5030389;28;20033;-70
2020/12/16 11:56:20;;;;;;;11.88;7.68;;;;;;;;;;5028550;28;20613;-71
2020/12/16 11:58:46;;;;;;;12.52;8.45;;;;;;;;;;5011392;28;20038;-71
2020/12/16 12:01:13;;;;;;;9.88;7.38;;;;;;;;;;5029821;28;20025;-71
2020/12/16 12:03:39;;;;;;;12.88;8.48;;;;;;;;;;5029628;28;20108;-71
2020/12/16 12:06:09;;;;;;;14.38;8.27;;;;;;;;;;5029171;28;20335;-70
2020/12/16 12:08:35;;;;;;;13.73;8.75;;;;;;;;;;5031998;28;20057;-71
2020/12/16 12:11:01;;;;;;;12.35;8.13;;;;;;;;;;5030614;28;20033;-71
2020/12/16 12:13:27;;;;;;;10.80;8.25;;;;;;;;;;5029357;28;20030;-69
2020/12/16 12:15:53;;;;;;;12.98;8.13;;;;;;;;;;5029681;28;20483;-69
2020/12/16 12:18:19;;;;;;;13.88;7.78;;;;;;;;;;5024964;28;20045;-69
2020/12/16 12:20:45;;;;;;;13.00;7.93;;;;;;;;;;5025082;28;20030;-71
2020/12/16 12:23:11;;;;;;;13.13;9.43;;;;;;;;;;5034217;28;20026;-70
2020/12/16 12:25:36;;;;;;;9.75;7.25;;;;;;;;;;5030208;28;20021;-71
2020/12/16 12:28:03;;;;;;;9.75;6.65;;;;;;;;;;5031516;28;20025;-71
2020/12/16 12:30:29;;;;;;;11.25;7.53;;;;;;;;;;5019339;28;20093;-69
2020/12/16 12:32:54;;;;;;;11.20;7.50;;;;;;;;;;5036185;28;20021;-68
2020/12/16 12:35:20;;;;;;;9.85;7.35;;;;;;;;;;5047074;28;20033;-70
2020/12/16 12:37:46;;;;;;;11.10;7.00;;;;;;;;;;5032848;28;20039;-69
2020/12/16 12:40:12;;;;;;;10.82;7.50;;;;;;;;;;5047310;28;20033;-71
2020/12/16 12:42:38;;;;;;;11.35;7.40;;;;;;;;;;5045216;28;20113;-69
2020/12/16 12:45:05;;;;;;;13.55;9.43;;;;;;;;;;5042821;28;20033;-69
2020/12/16 12:47:31;;;;;;;13.57;7.70;;;;;;;;;;5032249;28;20033;-70
2020/12/16 12:49:57;;;;;;;14.00;8.88;;;;;;;;;;5041565;28;20044;-70
2020/12/16 12:52:23;;;;;;;19.40;9.27;;;;;;;;;;5039652;28;20033;-69
2020/12/16 12:54:49;;;;;;;12.43;8.20;;;;;;;;;;5043770;28;20113;-69
2020/12/16 12:57:16;;;;;;;13.35;7.97;;;;;;;;;;5040609;28;20022;-70
2020/12/16 12:59:42;;;;;;;12.27;8.48;;;;;;;;;;5050301;28;20501;-72
2020/12/16 13:02:08;;;;;;;14.35;9.25;;;;;;;;;;5038603;28;20021;-71
2020/12/16 13:04:34;;;;;;;15.07;8.57;;;;;;;;;;5039448;28;20034;-71
2020/12/16 13:07:03;;;;;;;13.18;9.10;;;;;;;;;;5039879;28;20029;-71
2020/12/16 13:09:29;;;;;;;16.38;9.85;;;;;;;;;;5041826;28;20022;-73
2020/12/16 13:11:55;;;;;;;14.70;9.23;;;;;;;;;;5039279;28;20048;-72
2020/12/16 13:14:21;;;;;;;15.55;10.32;;;;;;;;;;5029736;28;20064;-71
2020/12/16 13:16:47;;;;;;;12.68;9.75;;;;;;;;;;5023532;28;20733;-71
2020/12/16 13:19:16;;;;;;;14.48;8.85;;;;;;;;;;5023766;28;20044;-71
2020/12/16 13:21:48;;;;;;;18.13;10.43;;;;;;;;;;5024926;28;20045;-70
2020/12/16 13:24:14;;;;;;;12.00;9.45;;;;;;;;;;5021291;28;20494;-71
2020/12/16 13:26:47;;;;;;;16.38;9.88;;;;;;;;;;5025264;28;20033;-70
2020/12/16 13:29:13;;;;;;;14.77;9.30;;;;;;;;;;5021534;28;20026;-72
2020/12/16 13:31:40;;;;;;;17.92;11.88;;;;;;;;;;5024452;28;20199;-72
2020/12/16 13:34:07;;;;;;;16.38;10.95;;;;;;;;;;5034237;28;20111;-73
2020/12/16 13:36:33;;;;;;;14.70;11.13;;;;;;;;;;5025192;28;20438;-72
2020/12/16 13:38:59;;;;;;;17.33;10.80;;;;;;;;;;5022698;28;20036;-71
2020/12/16 13:41:25;;;;;;;16.40;9.73;;;;;;;;;;5036037;28;20764;-72
2020/12/16 13:43:51;;;;;;;17.20;11.60;;;;;;;;;;5022525;28;20479;-72
2020/12/16 13:46:17;;;;;;;15.55;10.30;;;;;;;;;;5023996;28;20026;-72
2020/12/16 13:48:43;;;;;;;16.55;10.75;;;;;;;;;;5025184;28;20049;-72
2020/12/16 13:51:09;;;;;;;15.18;10.98;;;;;;;;;;5025223;28;20483;-72
2020/12/16 13:53:35;;;;;;;17.95;11.55;;;;;;;;;;5026959;28;20095;-71
2020/12/16 13:56:01;;;;;;;15.13;10.73;;;;;;;;;;5026446;28;20029;-72
2020/12/16 13:58:27;;;;;;;16.67;11.23;;;;;;;;;;5027809;28;20026;-71
2020/12/16 14:00:53;;;;;;;16.77;10.82;;;;;;;;;;5027183;28;20380;-71
2020/12/16 14:03:18;;;;;;;15.65;10.85;;;;;;;;;;5026940;28;20029;-71
2020/12/16 14:05:44;;;;;;;17.65;11.60;;;;;;;;;;5025247;28;20513;-71
2020/12/16 14:08:10;;;;;;;18.70;12.55;;;;;;;;;;5027096;28;20026;-71
2020/12/16 14:10:36;;;;;;;16.95;11.32;;;;;;;;;;5030749;28;20048;-71
2020/12/16 14:13:03;;;;;;;17.02;10.85;;;;;;;;;;5024032;28;20506;-72